Eureka, Alaska
Current Conditions -  °F | °C
As of 11:56 AM on Tuesday 27 Jan 2015 (Local Time) from PAZK Reporting Station
Clear Clear  
Wind Chill: -11°   Ceiling: Unl
Heat Index: -11°   Visibility: 10mi
Dew Point: -15°   Wind: 0mph
Humidity: 84%   Direction: NA
Pressure: 29.82"   Gusts: NA
Location:  61.94°N, 147.17°W
Report Text: PAZK 272056Z AUTO 00000KT 10SM CLR M24/M26 A2982 RMK AO1 52017
Loading
Personal Weather Stations






























Interactive Weather Map New forecast layout! Learn more

10-Day Weather Forecast

Advertisements
Track Severe Weather on mobile